Latest Weather Forecast - Monday 7th October 2019 (12 Noon)

Forecast Period:  12:00 Noon 7th October 2019 to 6:00 pm 7th October 2019 
Synopsis: A tropical wave is affecting the islands
Forecast: Partly cloudy,slightly hazy and breezy; becoming occasionally cloudy with scattered showers and isolated thunderstorms

Weather 
Advisory/Warning:

None

Winds: Easterly at  30 – 40 km/h ( 19 – 25 mph)
Sea Conditions:

Moderate in open water; with swells 1.0 – 2.0 m (increasing swells)

Marine 
Advisory:

Exercise caution for increasing swells

Upcoming Tides:
High: 12:38 pm -----    
Low: 8:30 pm -----

Aviation WX

[Source: ADDS]
METAR
TVSA 141800Z 10003KT 020V150 9999 FEW022 30/23 Q1012 NOSIG =
TVSA 141700Z 1418/1518 08010KT 9999 SCT018 PROB30 TEMPO 1503/1515 SHRA BKN014
TAF
TVSA 141700Z 1418/1518 08010KT 9999 SCT018 PROB30 TEMPO 1503/1515 SHRA BKN014 =
SR / SS: 09:54 / 21:45 UTC (Sunrise Sunset 2019-10-14)